Time;durP1;ratioP1;P1;durP2;ratioP2;P2;SDS_P1;SDS_P2;PMS_P1;PMS_P2;Temp;Humidity;BMP_temperature;BMP_pressure;BME280_temperature;BME280_humidity;BME280_pressure;Samples;Min_cycle;Max_cycle;Signal;HPM_P1;HPM_P2
2022/02/27 00:00:51;;;;;;;80.07;35.15;;;;;;;-1.03;100.00;101563.97;5097076;28;20350;-81
2022/02/27 00:03:35;;;;;;;80.30;35.92;;;;;;;-0.96;100.00;101566.03;5096208;28;20063;-81
2022/02/27 00:06:20;;;;;;;76.90;35.35;;;;;;;-0.92;100.00;101565.34;5081649;28;20052;-80
2022/02/27 00:09:05;;;;;;;80.32;34.65;;;;;;;-0.91;100.00;101558.53;5096341;28;20060;-81
2022/02/27 00:11:50;;;;;;;81.15;34.53;;;;;;;-0.92;100.00;101557.66;5097094;28;20044;-81
2022/02/27 00:14:35;;;;;;;71.53;32.47;;;;;;;-0.91;100.00;101564.56;5081799;28;20078;-81
2022/02/27 00:17:19;;;;;;;65.57;30.98;;;;;;;-0.87;100.00;101575.91;5096682;28;20426;-81
2022/02/27 00:20:05;;;;;;;72.22;32.03;;;;;;;-0.87;100.00;101565.59;5096631;28;20048;-81
2022/02/27 00:22:50;;;;;;;66.40;31.92;;;;;;;-0.87;100.00;101569.06;5095938;28;20423;-81
2022/02/27 00:25:35;;;;;;;68.28;31.55;;;;;;;-0.85;100.00;101572.56;5081324;28;20051;-81
2022/02/27 00:28:21;;;;;;;70.90;32.95;;;;;;;-0.78;100.00;101581.47;5095654;28;20040;-81
2022/02/27 00:31:05;;;;;;;68.80;31.90;;;;;;;-0.79;100.00;101574.56;5067364;28;20160;-81
2022/02/27 00:33:50;;;;;;;70.00;30.38;;;;;;;-0.83;100.00;101573.53;5081615;28;20048;-81
2022/02/27 00:36:35;;;;;;;64.93;29.45;;;;;;;-0.75;100.00;101572.25;5095624;28;20089;-81
2022/02/27 00:39:20;;;;;;;60.28;29.20;;;;;;;-0.76;100.00;101562.72;5096636;28;20040;-81
2022/02/27 00:42:05;;;;;;;58.45;29.50;;;;;;;-0.66;100.00;101579.50;5095650;28;20040;-81
2022/02/27 00:44:50;;;;;;;54.92;28.90;;;;;;;-0.67;100.00;101558.84;5095520;28;20059;-81
2022/02/27 00:47:34;;;;;;;58.08;27.85;;;;;;;-0.64;100.00;101559.88;5095515;28;20036;-81
2022/02/27 00:50:19;;;;;;;57.95;27.65;;;;;;;-0.59;100.00;101566.09;5095499;28;20040;-81
2022/02/27 00:53:03;;;;;;;65.00;29.90;;;;;;;-0.53;100.00;101574.13;5096237;28;20130;-81
2022/02/27 00:55:47;;;;;;;62.15;28.42;;;;;;;-0.45;100.00;101561.66;5095422;28;20403;-81
2022/02/27 00:58:32;;;;;;;67.35;30.35;;;;;;;-0.47;100.00;101565.81;5096142;28;20036;-81
2022/02/27 01:01:20;;;;;;;81.28;39.55;;;;;;;-0.47;100.00;101570.97;5081148;28;20040;-81
2022/02/27 01:04:04;;;;;;;83.85;39.03;;;;;;;-0.37;100.00;101562.00;5080975;28;20054;-81
2022/02/27 01:06:49;;;;;;;78.95;37.70;;;;;;;-0.27;100.00;101570.22;5094995;28;20052;-81
2022/02/27 01:09:34;;;;;;;82.18;37.25;;;;;;;-0.24;100.00;101556.59;5081004;28;20040;-81
2022/02/27 01:12:18;;;;;;;73.78;34.75;;;;;;;-0.20;100.00;101561.06;5095221;28;20051;-81
2022/02/27 01:15:04;;;;;;;65.22;32.05;;;;;;;-0.13;100.00;101569.97;5095319;28;20051;-81
2022/02/27 01:17:48;;;;;;;67.35;33.50;;;;;;;-0.13;100.00;101567.38;5095240;28;20047;-81
2022/02/27 01:20:33;;;;;;;63.83;29.95;;;;;;;0.00;100.00;101562.00;5095123;28;20044;-81
2022/02/27 01:23:18;;;;;;;63.97;31.15;;;;;;;0.06;100.00;101566.53;5095940;28;20036;-81
2022/02/27 01:26:02;;;;;;;54.90;25.70;;;;;;;0.08;100.00;101570.97;5095195;28;20271;-81
2022/02/27 01:28:47;;;;;;;53.97;27.20;;;;;;;0.23;100.00;101563.03;5094882;28;20067;-81
2022/02/27 01:31:31;;;;;;;52.35;27.60;;;;;;;0.25;100.00;101571.72;5094994;28;20457;-81
2022/02/27 01:34:16;;;;;;;51.88;27.00;;;;;;;-0.11;100.00;101479.06;5095157;28;20044;-81
2022/02/27 01:37:01;;;;;;;53.90;26.27;;;;;;;0.46;100.00;101561.47;5094968;28;20425;-81
2022/02/27 01:39:45;;;;;;;49.38;24.55;;;;;;;0.46;100.00;101561.47;5066648;28;20056;-81
2022/02/27 01:42:30;;;;;;;55.92;27.13;;;;;;;0.41;100.00;101569.00;5080719;28;20131;-81
2022/02/27 01:45:15;;;;;;;54.97;27.25;;;;;;;0.37;100.00;101555.91;5095563;28;20048;-81
2022/02/27 01:47:59;;;;;;;55.38;25.40;;;;;;;0.42;100.00;101557.88;5094913;28;20040;-81
2022/02/27 01:50:44;;;;;;;50.40;25.13;;;;;;;0.40;100.00;101558.63;5080737;28;20043;-81
2022/02/27 01:53:30;;;;;;;54.83;24.80;;;;;;;0.29;100.00;101563.28;5080858;28;20047;-81
2022/02/27 01:56:16;;;;;;;51.72;24.73;;;;;;;0.25;100.00;101568.25;5094796;28;20036;-81
2022/02/27 01:59:01;;;;;;;56.78;27.05;;;;;;;0.17;100.00;101567.94;5095019;28;20051;-81
2022/02/27 02:01:46;;;;;;;58.33;27.08;;;;;;;0.04;100.00;101556.19;5094762;28;20039;-81
2022/02/27 02:04:31;;;;;;;51.97;25.85;;;;;;;-0.03;100.00;101556.72;5094726;28;20047;-81
2022/02/27 02:07:15;;;;;;;60.42;28.08;;;;;;;-0.21;100.00;101555.88;5095464;28;20101;-81
2022/02/27 02:10:00;;;;;;;61.72;29.08;;;;;;;-0.26;100.00;101556.53;5094735;28;20040;-81
2022/02/27 02:12:45;;;;;;;58.00;28.90;;;;;;;-0.38;100.00;101560.25;5094673;28;20116;-81
2022/02/27 02:15:30;;;;;;;52.72;25.60;;;;;;;-0.44;100.00;101558.25;5080066;28;20465;-81
2022/02/27 02:18:15;;;;;;;54.92;26.80;;;;;;;-0.51;100.00;101556.19;5080384;28;20037;-81
2022/02/27 02:20:59;;;;;;;55.88;27.33;;;;;;;-0.60;100.00;101548.03;5082036;28;20120;-81
2022/02/27 02:23:44;;;;;;;52.00;26.75;;;;;;;-0.69;100.00;101551.03;5098195;28;20039;-81
2022/02/27 02:26:35;;;;;;;55.33;27.63;;;;;;;-0.72;100.00;101551.75;5098182;28;20052;-81
2022/02/27 02:29:24;;;;;;;57.63;28.25;;;;;;;-0.76;100.00;101555.00;5097924;28;20048;-81
2022/02/27 02:32:09;;;;;;;55.47;27.30;;;;;;;-0.84;100.00;101551.19;5098218;28;20422;-81
2022/02/27 02:34:53;;;;;;;55.70;27.95;;;;;;;-0.88;100.00;101540.66;5083795;28;20059;-81
2022/02/27 02:37:38;;;;;;;52.10;26.52;;;;;;;-1.05;100.00;101527.84;5097990;28;20119;-81
2022/02/27 02:40:24;;;;;;;57.13;27.17;;;;;;;-1.05;100.00;101547.56;5097985;28;20436;-81
2022/02/27 02:43:13;;;;;;;62.05;30.38;;;;;;;-1.20;100.00;101546.00;5083731;28;20068;-81
2022/02/27 02:45:57;;;;;;;56.58;29.48;;;;;;;-1.22;100.00;101549.31;5083472;28;20051;-81
2022/02/27 02:48:42;;;;;;;58.42;28.30;;;;;;;-1.32;100.00;101544.50;5083500;28;20040;-81
2022/02/27 02:51:47;;;;;;;58.03;28.45;;;;;;;-1.42;100.00;101558.59;5096571;28;20441;-81
2022/02/27 02:54:31;;;;;;;67.13;28.73;;;;;;;-1.42;100.00;101556.88;5097615;28;20044;-81
2022/02/27 02:57:16;;;;;;;61.17;30.10;;;;;;;-1.50;100.00;101553.03;5098437;28;20066;-81
2022/02/27 03:00:00;;;;;;;61.20;30.35;;;;;;;-1.55;100.00;101561.31;5083492;28;20062;-81
2022/02/27 03:02:45;;;;;;;62.00;29.92;;;;;;;-1.62;100.00;101554.13;5097826;28;20040;-81
2022/02/27 03:05:29;;;;;;;62.67;29.83;;;;;;;-1.67;100.00;101559.00;5097358;28;20357;-81
2022/02/27 03:08:14;;;;;;;63.08;30.52;;;;;;;-1.73;100.00;101551.84;5097455;28;20040;-81
2022/02/27 03:10:58;;;;;;;60.35;29.40;;;;;;;-1.75;100.00;101538.06;5097519;28;20063;-81
2022/02/27 03:13:43;;;;;;;61.97;31.15;;;;;;;-1.72;100.00;101552.75;5098019;28;20051;-81
2022/02/27 03:16:29;;;;;;;59.75;30.35;;;;;;;-1.67;100.00;101561.56;5082987;28;20036;-81
2022/02/27 03:19:13;;;;;;;70.78;32.25;;;;;;;-1.51;100.00;101563.25;5097378;28;20044;-81
2022/02/27 03:21:57;;;;;;;59.75;29.58;;;;;;;-1.30;100.00;101560.88;5097832;28;20036;-81
2022/02/27 03:24:42;;;;;;;62.30;30.17;;;;;;;-1.19;100.00;101554.59;5096993;28;20040;-81
2022/02/27 03:27:27;;;;;;;66.93;32.58;;;;;;;-1.11;100.00;101548.13;5097045;28;20414;-81
2022/02/27 03:30:11;;;;;;;61.78;31.58;;;;;;;-1.02;100.00;101558.88;5096858;28;20048;-80
2022/02/27 03:32:56;;;;;;;67.38;32.40;;;;;;;-0.96;100.00;101553.16;5096034;28;20135;-80
2022/02/27 03:35:41;;;;;;;59.17;30.98;;;;;;;-0.86;100.00;101560.53;5096855;28;20044;-80
2022/02/27 03:38:25;;;;;;;70.40;35.03;;;;;;;-0.87;100.00;101563.03;5096772;28;20105;-80
2022/02/27 03:41:10;;;;;;;67.40;32.70;;;;;;;-0.80;100.00;101555.69;5097581;28;20040;-80
2022/02/27 03:43:54;;;;;;;67.45;33.85;;;;;;;-0.79;100.00;101561.69;5096782;28;20052;-80
2022/02/27 03:46:39;;;;;;;77.60;38.70;;;;;;;-0.76;100.00;101567.88;5082361;28;20430;-80
2022/02/27 03:49:23;;;;;;;84.03;38.65;;;;;;;-0.71;100.00;101563.84;5096542;28;20071;-80
2022/02/27 03:52:07;;;;;;;70.13;36.97;;;;;;;-0.57;100.00;101571.34;5097266;28;20052;-80
2022/02/27 03:54:51;;;;;;;79.28;39.85;;;;;;;-0.66;100.00;101582.06;5096549;28;20055;-80
2022/02/27 03:57:37;;;;;;;74.82;39.88;;;;;;;-0.60;100.00;101578.91;5082264;28;20040;-80
2022/02/27 04:00:21;;;;;;;67.28;37.17;;;;;;;-0.59;100.00;101576.41;5082115;28;20051;-80
2022/02/27 04:03:08;;;;;;;75.57;36.53;;;;;;;-0.61;100.00;101579.75;5096388;28;20085;-80
2022/02/27 04:05:52;;;;;;;79.22;39.28;;;;;;;-0.66;100.00;101591.50;5082011;28;20169;-80
2022/02/27 04:08:37;;;;;;;75.85;37.75;;;;;;;-0.56;100.00;101583.41;5096183;28;20040;-80
2022/02/27 04:11:21;;;;;;;73.25;37.92;;;;;;;-0.64;100.00;101582.16;5096107;28;20047;-80
2022/02/27 04:14:06;;;;;;;88.65;44.00;;;;;;;-0.68;100.00;101582.81;5081623;28;20464;-80
2022/02/27 04:16:51;;;;;;;79.10;41.00;;;;;;;-0.67;100.00;101587.16;5096100;28;20044;-80
2022/02/27 04:19:35;;;;;;;80.38;39.08;;;;;;;-0.73;100.00;101587.72;5096070;28;20331;-80
2022/02/27 04:22:20;;;;;;;76.82;38.70;;;;;;;-0.71;100.00;101584.44;5081753;28;20063;-80
2022/02/27 04:25:05;;;;;;;78.22;39.53;;;;;;;-0.62;100.00;101590.81;5096589;28;20051;-80
2022/02/27 04:27:49;;;;;;;66.85;35.75;;;;;;;-0.70;100.00;101600.75;5095964;28;20131;-80
2022/02/27 04:30:33;;;;;;;79.15;40.53;;;;;;;-0.77;100.00;101596.13;5096295;28;20056;-80
2022/02/27 04:33:18;;;;;;;79.20;40.17;;;;;;;-0.75;100.00;101597.97;5096570;28;20485;-80
2022/02/27 04:36:03;;;;;;;77.20;39.05;;;;;;;-0.71;100.00;101605.03;5095949;28;20052;-80
2022/02/27 04:38:48;;;;;;;82.68;41.33;;;;;;;-0.68;100.00;101605.97;5095898;28;20055;-80
2022/02/27 04:41:32;;;;;;;76.18;38.58;;;;;;;-0.70;100.00;101613.63;5081389;28;20056;-80
2022/02/27 04:44:17;;;;;;;79.28;41.08;;;;;;;-0.86;100.00;101605.97;5081050;28;20068;-80
2022/02/27 04:47:01;;;;;;;86.07;41.83;;;;;;;-0.89;100.00;101606.69;5095624;28;20047;-80
2022/02/27 04:49:48;;;;;;;84.05;42.85;;;;;;;-0.82;100.00;101613.88;5096201;28;20071;-80
2022/02/27 04:52:33;;;;;;;84.78;43.35;;;;;;;-0.80;100.00;101608.84;5096260;28;20048;-80
2022/02/27 04:55:19;;;;;;;97.93;48.33;;;;;;;-0.75;100.00;101623.72;5095600;28;20486;-80
2022/02/27 04:58:04;;;;;;;118.25;47.42;;;;;;;-0.54;100.00;101613.56;5095466;28;20101;-80
2022/02/27 05:00:49;;;;;;;105.28;45.70;;;;;;;-0.45;100.00;101617.41;5081214;28;20123;-80
2022/02/27 05:03:34;;;;;;;124.55;50.22;;;;;;;-0.26;100.00;101626.06;5096038;28;20044;-80
2022/02/27 05:06:18;;;;;;;125.65;51.95;;;;;;;-0.43;100.00;101614.06;5095405;28;20040;-80
2022/02/27 05:09:02;;;;;;;137.82;52.17;;;;;;;-0.20;100.00;101632.31;5095387;28;20353;-80
2022/02/27 05:11:48;;;;;;;177.88;58.80;;;;;;;-0.08;100.00;101631.19;5095489;28;20040;-80
2022/02/27 05:14:32;;;;;;;145.00;53.88;;;;;;;0.03;100.00;101623.09;5095945;28;20040;-81
2022/02/27 05:17:16;;;;;;;137.93;53.25;;;;;;;-0.05;100.00;101639.06;5095167;28;20327;-80
2022/02/27 05:20:01;;;;;;;132.52;50.50;;;;;;;0.02;100.00;101634.22;5095908;28;20040;-81
2022/02/27 05:22:47;;;;;;;179.57;56.60;;;;;;;-0.09;100.00;101638.88;5080933;28;20056;-81
2022/02/27 05:25:32;;;;;;;118.47;48.97;;;;;;;0.10;100.00;101646.66;5095087;28;20040;-81
2022/02/27 05:28:16;;;;;;;140.27;53.92;;;;;;;0.09;100.00;101644.88;5080753;28;20032;-81
2022/02/27 05:31:00;;;;;;;145.80;53.20;;;;;;;0.23;100.00;101648.97;5095757;28;20051;-80
2022/02/27 05:33:44;;;;;;;139.43;52.35;;;;;;;0.29;100.00;101645.78;5080478;28;20518;-82
2022/02/27 05:36:29;;;;;;;108.97;45.15;;;;;;;0.37;100.00;101646.16;5094924;28;20059;-80
2022/02/27 05:39:14;;;;;;;118.00;44.97;;;;;;;0.47;100.00;101658.63;5080786;28;20040;-81
2022/02/27 05:41:59;;;;;;;136.52;50.28;;;;;;;0.26;100.00;101645.66;5095058;28;20047;-80
2022/02/27 05:44:43;;;;;;;103.30;42.63;;;;;;;0.41;100.00;101659.22;5094689;28;20056;-80
2022/02/27 05:47:27;;;;;;;151.18;46.40;;;;;;;0.44;100.00;101659.38;5094016;28;20143;-81
2022/02/27 05:50:12;;;;;;;103.38;41.22;;;;;;;0.41;100.00;101661.81;5094341;28;20486;-80
2022/02/27 05:52:57;;;;;;;112.15;40.50;;;;;;;0.54;100.00;101659.78;5093895;28;20048;-81
2022/02/27 05:55:41;;;;;;;109.57;41.22;;;;;;;0.58;100.00;101661.69;5096320;28;20056;-81
2022/02/27 05:58:26;;;;;;;148.55;47.92;;;;;;;0.54;100.00;101665.84;5097998;28;20315;-81
2022/02/27 06:01:10;;;;;;;103.88;41.42;;;;;;;0.55;100.00;101658.97;5084310;28;20050;-81
2022/02/27 06:03:55;;;;;;;121.03;46.05;;;;;;;0.51;100.00;101665.69;5098940;28;20441;-81
2022/02/27 06:06:39;;;;;;;126.95;45.45;;;;;;;0.48;100.00;101660.38;5098711;28;20047;-81
2022/02/27 06:09:23;;;;;;;125.88;46.25;;;;;;;0.55;100.00;101672.75;5099513;28;20039;-82
2022/02/27 06:12:08;;;;;;;121.32;45.92;;;;;;;0.49;100.00;101676.75;5099310;28;20354;-82
2022/02/27 06:14:53;;;;;;;128.63;46.30;;;;;;;0.51;100.00;101680.28;5098516;28;20346;-82
2022/02/27 06:17:37;;;;;;;101.93;44.22;;;;;;;0.57;100.00;101660.81;5099027;28;20410;-82
2022/02/27 06:20:21;;;;;;;108.68;45.75;;;;;;;0.58;100.00;101683.19;5084717;28;20040;-82
2022/02/27 06:23:06;;;;;;;110.80;45.38;;;;;;;0.74;100.00;101686.47;5084076;28;20124;-82
2022/02/27 06:25:51;;;;;;;113.20;44.75;;;;;;;0.64;100.00;101685.19;5098076;28;20044;-82
2022/02/27 06:28:35;;;;;;;123.65;51.00;;;;;;;0.79;100.00;101692.72;5098321;28;20086;-81
2022/02/27 06:31:19;;;;;;;110.03;44.63;;;;;;;0.75;100.00;101685.66;5099726;28;20058;-82
2022/02/27 06:34:03;;;;;;;120.32;46.40;;;;;;;0.80;100.00;101690.19;5084434;28;20051;-81
2022/02/27 06:36:48;;;;;;;136.98;49.00;;;;;;;0.84;100.00;101689.53;5099187;28;20043;-81
2022/02/27 06:39:32;;;;;;;104.65;44.50;;;;;;;0.87;100.00;101699.97;5098827;28;20044;-81
2022/02/27 06:42:17;;;;;;;120.75;45.80;;;;;;;0.97;100.00;101700.38;5083811;28;20410;-81
2022/02/27 06:45:03;;;;;;;117.15;46.03;;;;;;;0.98;100.00;101703.06;5084187;28;20044;-81
2022/02/27 06:47:47;;;;;;;100.93;42.60;;;;;;;1.17;100.00;101710.78;5097946;28;20418;-81
2022/02/27 06:50:32;;;;;;;110.47;44.85;;;;;;;1.13;100.00;101714.03;5083618;28;20040;-81
2022/02/27 06:53:16;;;;;;;106.38;44.78;;;;;;;1.25;100.00;101715.38;5098579;28;20058;-81
2022/02/27 06:56:00;;;;;;;111.30;42.13;;;;;;;1.13;100.00;101708.84;5084046;28;20119;-81
2022/02/27 06:58:44;;;;;;;98.35;41.42;;;;;;;1.31;100.00;101713.06;5097696;28;20044;-81
2022/02/27 07:01:28;;;;;;;127.72;47.35;;;;;;;1.19;100.00;101713.41;5083931;28;20044;-81
2022/02/27 07:04:13;;;;;;;117.40;43.95;;;;;;;1.26;100.00;101723.19;5098508;28;20104;-81
2022/02/27 07:06:57;;;;;;;139.38;45.80;;;;;;;1.20;100.00;101729.78;5098126;28;20095;-82
2022/02/27 07:09:41;;;;;;;117.03;47.72;;;;;;;0.92;100.00;101721.72;5097582;28;20047;-81
2022/02/27 07:12:34;;;;;;;128.77;51.22;;;;;;;0.90;100.00;101731.06;5098463;28;20074;-82
2022/02/27 07:15:19;;;;;;;101.82;43.25;;;;;;;1.04;100.00;101734.28;5083181;28;20056;-82
2022/02/27 07:18:05;;;;;;;121.70;48.08;;;;;;;1.13;100.00;101731.22;5098650;28;20073;-82
2022/02/27 07:20:50;;;;;;;103.10;42.92;;;;;;;1.37;100.00;101736.56;5097321;28;20093;-81
2022/02/27 07:23:34;;;;;;;103.43;48.60;;;;;;;1.52;100.00;101746.66;5083035;28;20067;-81
2022/02/27 07:26:18;;;;;;;87.57;42.10;;;;;;;1.61;100.00;101739.31;5098405;28;20063;-81
2022/02/27 07:29:03;;;;;;;107.25;48.83;;;;;;;1.58;100.00;101741.75;5097372;28;20051;-81
2022/02/27 07:31:48;;;;;;;108.20;49.92;;;;;;;1.58;100.00;101741.75;5097993;28;20040;-81
2022/02/27 07:34:32;;;;;;;138.52;70.78;;;;;;;1.39;100.00;101745.25;5097640;28;20044;-81
2022/02/27 07:37:17;;;;;;;116.22;51.00;;;;;;;1.53;100.00;101746.75;5097017;28;20047;-81
2022/02/27 07:40:03;;;;;;;145.68;52.83;;;;;;;1.39;100.00;101745.25;5083308;28;20036;-81
2022/02/27 07:42:48;;;;;;;109.45;43.88;;;;;;;1.50;100.00;101741.44;5097498;28;20040;-81
2022/02/27 07:45:32;;;;;;;166.88;118.90;;;;;;;1.31;100.00;101741.47;5097375;28;20040;-81
2022/02/27 07:48:16;;;;;;;226.75;87.68;;;;;;;1.35;100.00;101751.97;5082737;28;20094;-81
2022/02/27 07:51:01;;;;;;;171.85;62.38;;;;;;;1.54;100.00;101745.03;5082509;28;20078;-81
2022/02/27 07:53:45;;;;;;;162.60;54.47;;;;;;;1.59;100.00;101748.66;5097983;28;20036;-81
2022/02/27 07:56:30;;;;;;;117.10;43.88;;;;;;;1.71;100.00;101748.31;5082520;28;20107;-80
2022/02/27 07:59:15;;;;;;;220.73;154.23;;;;;;;1.50;100.00;101749.19;5097223;28;20044;-80
2022/02/27 08:01:59;;;;;;;131.45;61.25;;;;;;;1.69;100.00;101743.09;5097539;28;20051;-81
2022/02/27 08:04:44;;;;;;;89.82;39.70;;;;;;;2.06;100.00;101747.19;5081730;28;20044;-81
2022/02/27 08:07:28;;;;;;;100.00;40.80;;;;;;;1.64;100.00;101742.00;5094918;28;20036;-80
2022/02/27 08:10:13;;;;;;;82.13;35.75;;;;;;;1.84;100.00;101748.88;5094912;28;20040;-80
2022/02/27 08:12:57;;;;;;;112.28;39.10;;;;;;;1.84;100.00;101748.88;5081013;28;20039;-80
2022/02/27 08:15:41;;;;;;;406.23;325.55;;;;;;;1.78;100.00;101756.38;5095284;28;20055;-79
2022/02/27 08:18:27;;;;;;;135.38;65.47;;;;;;;1.93;100.00;101760.44;5080402;28;20040;-80
2022/02/27 08:21:11;;;;;;;108.82;42.95;;;;;;;1.84;100.00;101755.75;5095709;28;20067;-80
2022/02/27 08:23:56;;;;;;;113.20;41.22;;;;;;;1.99;100.00;101753.81;5080917;28;20044;-80
2022/02/27 08:26:40;;;;;;;81.57;34.10;;;;;;;2.04;100.00;101748.81;5080544;28;20048;-80
2022/02/27 08:29:25;;;;;;;120.82;41.97;;;;;;;2.06;100.00;101752.34;5095666;28;20048;-80
2022/02/27 08:32:10;;;;;;;55.28;25.30;;;;;;;2.14;100.00;101753.53;5096069;28;20036;-80
2022/02/27 08:34:54;;;;;;;81.25;38.53;;;;;;;2.06;100.00;101758.41;5081629;28;20365;-80
2022/02/27 08:37:39;;;;;;;65.43;28.48;;;;;;;2.00;100.00;101752.97;5096264;28;20047;-80
2022/02/27 08:40:23;;;;;;;70.88;28.38;;;;;;;1.85;100.00;101755.84;5096219;28;20048;-80
2022/02/27 08:43:08;;;;;;;69.80;26.80;;;;;;;2.09;100.00;101750.75;5095863;28;20044;-80
2022/02/27 08:45:52;;;;;;;105.03;37.03;;;;;;;2.27;100.00;101749.72;5096456;28;20125;-80
2022/02/27 08:48:37;;;;;;;114.00;38.83;;;;;;;2.11;100.00;101743.06;5096326;28;20105;-81
2022/02/27 08:51:21;;;;;;;65.53;26.90;;;;;;;2.14;100.00;101752.66;5096046;28;20040;-81
2022/02/27 08:54:06;;;;;;;51.50;24.70;;;;;;;2.24;100.00;101754.78;5096701;28;20051;-81
2022/02/27 08:56:50;;;;;;;124.55;41.10;;;;;;;2.00;100.00;101746.94;5095672;28;20067;-81
2022/02/27 08:59:35;;;;;;;59.97;25.73;;;;;;;2.03;100.00;101734.13;5096601;28;20055;-81
2022/02/27 09:02:19;;;;;;;57.92;28.30;;;;;;;2.15;100.00;101750.13;5095593;28;20036;-82
2022/02/27 09:05:05;;;;;;;52.83;27.25;;;;;;;2.08;100.00;101742.94;5096433;28;20493;-82
2022/02/27 09:07:49;;;;;;;90.97;34.97;;;;;;;2.16;100.00;101745.84;5096097;28;20044;-80
2022/02/27 09:10:34;;;;;;;200.80;60.17;;;;;;;2.16;100.00;101733.78;5095776;28;20430;-84
2022/02/27 09:13:18;;;;;;;60.53;27.60;;;;;;;2.32;100.00;101741.34;5096672;28;20058;-83
2022/02/27 09:16:02;;;;;;;62.08;28.80;;;;;;;2.36;100.00;101733.69;5095967;28;20430;-82
2022/02/27 09:18:47;;;;;;;94.68;35.95;;;;;;;2.63;100.00;101733.84;5096633;28;20055;-82
2022/02/27 09:21:31;;;;;;;78.75;34.47;;;;;;;2.66;100.00;101733.97;5096328;28;20043;-82
2022/02/27 09:24:16;;;;;;;112.15;47.75;;;;;;;2.15;100.00;101718.25;5095538;28;20071;-83
2022/02/27 09:27:00;;;;;;;142.55;57.63;;;;;;;2.56;100.00;101719.81;5096930;28;20073;-82
2022/02/27 09:29:45;;;;;;;156.02;55.67;;;;;;;2.52;100.00;101720.53;5080910;28;20365;-83
2022/02/27 09:32:29;;;;;;;79.68;36.78;;;;;;;2.38;100.00;101725.19;5099484;28;20044;-83
2022/02/27 09:35:13;;;;;;;61.47;32.35;;;;;;;2.17;100.00;101726.91;5100420;28;20059;-82
2022/02/27 09:37:59;;;;;;;54.95;31.05;;;;;;;2.20;100.00;101706.34;5100594;28;20055;-82
2022/02/27 09:40:46;;;;;;;61.95;33.28;;;;;;;2.42;100.00;101731.34;5099827;28;20097;-83
2022/02/27 09:43:32;;;;;;;64.18;31.80;;;;;;;2.55;100.00;101733.56;5100448;28;20047;-83
2022/02/27 09:46:16;;;;;;;129.10;72.22;;;;;;;2.54;100.00;101729.25;5084764;28;20358;-83
2022/02/27 09:49:00;;;;;;;109.95;43.05;;;;;;;2.44;100.00;101706.41;5099098;28;20036;-83
2022/02/27 09:51:45;;;;;;;79.57;36.65;;;;;;;2.51;100.00;101723.94;5100068;28;20040;-83
2022/02/27 09:54:30;;;;;;;85.28;37.83;;;;;;;2.46;100.00;101725.47;5100039;28;20380;-83
2022/02/27 09:57:19;;;;;;;112.18;47.08;;;;;;;2.27;100.00;101724.75;5085293;28;20044;-83
2022/02/27 10:00:08;;;;;;;59.17;30.48;;;;;;;2.74;100.00;101722.22;5099234;28;20047;-83
2022/02/27 10:03:16;;;;;;;116.30;52.90;;;;;;;2.66;100.00;101727.09;5099787;28;20422;-83
2022/02/27 10:06:07;;;;;;;136.45;65.32;;;;;;;2.89;100.00;101729.66;5099027;28;20039;-83
2022/02/27 10:08:56;;;;;;;118.05;57.97;;;;;;;2.65;100.00;101733.09;5084448;28;20040;-81
2022/02/27 10:11:41;;;;;;;82.07;35.72;;;;;;;2.68;100.00;101725.44;5099426;28;20040;-81
2022/02/27 10:14:27;;;;;;;98.32;38.47;;;;;;;2.43;100.00;101723.63;5098865;28;20505;-81
2022/02/27 10:17:11;;;;;;;75.30;36.30;;;;;;;2.50;100.00;101723.06;5099148;28;20040;-81
2022/02/27 10:19:55;;;;;;;74.60;36.17;;;;;;;2.61;100.00;101720.00;5099881;28;20044;-81
2022/02/27 10:22:43;;;;;;;62.33;32.50;;;;;;;2.86;100.00;101726.94;5098860;28;20040;-81
2022/02/27 10:25:28;;;;;;;72.82;39.10;;;;;;;2.57;100.00;101730.22;5098681;28;20040;-81
2022/02/27 10:28:13;;;;;;;59.33;31.45;;;;;;;2.39;100.00;101733.81;5098573;28;20132;-81
2022/02/27 10:31:08;;;;;;;54.70;27.52;;;;;;;2.40;100.00;101732.97;5100050;28;20040;-81
2022/02/27 10:33:56;;;;;;;87.18;43.35;;;;;;;2.31;100.00;101733.53;5098806;28;20036;-81
2022/02/27 10:37:03;;;;;;;160.05;75.03;;;;;;;2.48;100.00;101729.88;5099247;28;20046;-81
2022/02/27 10:39:51;;;;;;;287.17;136.15;;;;;;;2.53;100.00;101732.63;5098853;28;20040;-81
2022/02/27 10:42:35;;;;;;;130.82;53.70;;;;;;;2.57;100.00;101726.78;5097851;28;20150;-81
2022/02/27 10:45:20;;;;;;;62.17;33.10;;;;;;;2.57;100.00;101725.06;5098568;28;20422;-81
2022/02/27 10:48:11;;;;;;;54.13;28.67;;;;;;;2.55;100.00;101720.66;5097977;28;20048;-81
2022/02/27 10:51:11;;;;;;;120.57;61.90;;;;;;;2.49;100.00;101720.41;5099100;28;20495;-81
2022/02/27 10:53:56;;;;;;;47.17;25.65;;;;;;;2.41;100.00;101708.91;5098898;28;20044;-81
2022/02/27 10:56:42;;;;;;;110.38;63.70;;;;;;;2.51;100.00;101711.88;5083911;28;20066;-81
2022/02/27 10:59:26;;;;;;;50.70;27.17;;;;;;;2.43;100.00;101697.78;5083490;28;20045;-81
2022/02/27 11:02:10;;;;;;;47.38;25.23;;;;;;;2.50;100.00;101686.84;5098772;28;20044;-81
2022/02/27 11:04:56;;;;;;;55.45;30.38;;;;;;;2.64;100.00;101697.72;5098339;28;20319;-81
2022/02/27 11:07:47;;;;;;;39.97;23.17;;;;;;;2.85;100.00;101702.78;5098238;28;20051;-81
2022/02/27 11:10:34;;;;;;;82.75;41.40;;;;;;;3.16;100.00;101707.34;5098374;28;20422;-81
2022/02/27 11:13:20;;;;;;;41.80;23.02;;;;;;;3.21;100.00;101690.25;5083299;28;20430;-81
2022/02/27 11:16:07;;;;;;;48.40;24.98;;;;;;;3.19;100.00;101704.88;5097445;28;20047;-81
2022/02/27 11:18:52;;;;;;;47.42;25.98;;;;;;;3.07;100.00;101700.97;5083408;28;20043;-81
2022/02/27 11:21:37;;;;;;;43.45;23.95;;;;;;;3.17;100.00;101697.88;5098123;28;20058;-81
2022/02/27 11:24:22;;;;;;;43.30;24.25;;;;;;;3.22;100.00;101660.09;5097269;28;20040;-81
2022/02/27 11:27:08;;;;;;;45.55;24.63;;;;;;;3.42;100.00;101692.72;5098241;28;20040;-81
2022/02/27 11:29:53;;;;;;;47.22;26.83;;;;;;;3.26;100.00;101700.78;5082784;28;20048;-81
2022/02/27 11:32:53;;;;;;;53.42;27.80;;;;;;;3.44;100.00;101688.44;5098015;28;20060;-81
2022/02/27 11:35:45;;;;;;;49.65;26.90;;;;;;;3.41;100.00;101684.88;5097797;28;20072;-81
2022/02/27 11:38:29;;;;;;;44.78;24.55;;;;;;;3.52;100.00;101691.31;5097658;28;20036;-81
2022/02/27 11:41:16;;;;;;;53.75;27.27;;;;;;;3.07;100.00;101688.91;5082787;28;20044;-81
2022/02/27 11:44:13;;;;;;;115.22;51.80;;;;;;;3.46;100.00;101683.34;5097043;28;20044;-81
2022/02/27 11:47:17;;;;;;;62.80;31.40;;;;;;;3.51;100.00;101667.13;5097416;28;20424;-81
2022/02/27 11:50:24;;;;;;;67.13;33.75;;;;;;;3.60;100.00;101676.88;5096751;28;20044;-82
2022/02/27 11:53:20;;;;;;;58.38;31.23;;;;;;;3.50;100.00;101677.41;5080615;28;20044;-81
2022/02/27 11:56:04;;;;;;;68.60;36.92;;;;;;;3.32;100.00;101650.91;5096062;28;20177;-81
2022/02/27 11:58:50;;;;;;;59.78;30.38;;;;;;;3.30;100.00;101660.34;5096570;28;20043;-81
2022/02/27 12:01:54;;;;;;;54.67;28.27;;;;;;;3.56;100.00;101669.84;5097183;28;20040;-81
2022/02/27 12:04:48;;;;;;;54.55;27.23;;;;;;;3.49;100.00;101667.88;5096835;28;20044;-81
2022/02/27 12:07:57;;;;;;;58.95;28.90;;;;;;;3.71;100.00;101667.75;5082499;28;20094;-81
2022/02/27 12:10:45;;;;;;;52.08;28.02;;;;;;;3.72;100.00;101653.97;5096501;28;20051;-81
2022/02/27 12:13:30;;;;;;;49.17;25.88;;;;;;;4.14;100.00;101666.50;5096516;28;20040;-81
2022/02/27 12:16:15;;;;;;;51.92;27.27;;;;;;;3.96;100.00;101676.31;5097563;28;20051;-81
2022/02/27 12:18:59;;;;;;;65.88;32.10;;;;;;;3.69;100.00;101669.41;5082209;28;20070;-81
2022/02/27 12:21:44;;;;;;;46.70;26.33;;;;;;;3.77;100.00;101673.97;5096849;28;20040;-81
2022/02/27 12:24:30;;;;;;;57.15;28.52;;;;;;;3.73;100.00;101668.69;5096907;28;20036;-81
2022/02/27 12:27:14;;;;;;;93.13;44.70;;;;;;;3.92;100.00;101670.16;5097057;28;20040;-81